sensor_id;sensor_type;location;lat;lon;timestamp;pressure;altitude;pressure_sealevel;temperature;humidity
12211;BME280;6168;42.658;23.298;2022-07-29T04:00:57;64348.81;;;-139.92;100.00
12211;BME280;6168;42.658;23.298;2022-07-29T04:03:24;64269.69;;;-139.92;100.00
12211;BME280;6168;42.658;23.298;2022-07-29T04:05:58;64319.66;;;-139.92;100.00
12211;BME280;6168;42.658;23.298;2022-07-29T04:08:25;64271.78;;;-139.92;100.00
12211;BME280;6168;42.658;23.298;2022-07-29T04:10:52;64307.16;;;-139.92;100.00
12211;BME280;6168;42.658;23.298;2022-07-29T04:13:20;64300.94;;;-139.92;100.00
12211;BME280;6168;42.658;23.298;2022-07-29T04:15:47;64346.72;;;-139.92;100.00
12211;BME280;6168;42.658;23.298;2022-07-29T04:18:15;64319.66;;;-139.92;100.00
12211;BME280;6168;42.658;23.298;2022-07-29T04:20:42;64313.41;;;-139.92;100.00
12211;BME280;6168;42.658;23.298;2022-07-29T04:23:09;64325.91;;;-139.92;100.00
12211;BME280;6168;42.658;23.298;2022-07-29T04:25:37;64292.59;;;-139.92;100.00
12211;BME280;6168;42.658;23.298;2022-07-29T04:28:05;64288.44;;;-139.92;100.00
12211;BME280;6168;42.658;23.298;2022-07-29T04:30:34;64313.41;;;-139.92;100.00
12211;BME280;6168;42.658;23.298;2022-07-29T04:33:03;64292.59;;;-139.92;100.00
12211;BME280;6168;42.658;23.298;2022-07-29T04:35:34;64296.75;;;-139.92;100.00
12211;BME280;6168;42.658;23.298;2022-07-29T04:38:01;64321.75;;;-139.92;100.00
12211;BME280;6168;42.658;23.298;2022-07-29T04:40:28;64332.16;;;-139.92;100.00
12211;BME280;6168;42.658;23.298;2022-07-29T04:42:55;64298.84;;;-139.92;100.00
12211;BME280;6168;42.658;23.298;2022-07-29T04:45:22;64307.16;;;-139.92;100.00
12211;BME280;6168;42.658;23.298;2022-07-29T04:47:49;64282.19;;;-139.92;100.00
12211;BME280;6168;42.658;23.298;2022-07-29T04:50:16;64282.19;;;-139.92;100.00
12211;BME280;6168;42.658;23.298;2022-07-29T04:52:44;64278.03;;;-139.92;100.00
12211;BME280;6168;42.658;23.298;2022-07-29T04:55:11;64267.59;;;-139.92;100.00
12211;BME280;6168;42.658;23.298;2022-07-29T04:57:38;64286.34;;;-139.92;100.00
12211;BME280;6168;42.658;23.298;2022-07-29T05:00:07;64265.53;;;-139.92;100.00
12211;BME280;6168;42.658;23.298;2022-07-29T05:02:34;64263.44;;;-139.92;100.00
12211;BME280;6168;42.658;23.298;2022-07-29T05:05:01;64238.44;;;-139.92;100.00
12211;BME280;6168;42.658;23.298;2022-07-29T05:07:28;64269.69;;;-139.92;100.00
12211;BME280;6168;42.658;23.298;2022-07-29T05:09:56;64253.03;;;-139.92;100.00
12211;BME280;6168;42.658;23.298;2022-07-29T05:12:24;64209.31;;;-139.92;100.00
12211;BME280;6168;42.658;23.298;2022-07-29T05:14:51;64217.63;;;-139.92;100.00
12211;BME280;6168;42.658;23.298;2022-07-29T05:17:18;64228.03;;;-139.92;100.00
12211;BME280;6168;42.658;23.298;2022-07-29T05:19:45;64253.03;;;-139.92;100.00
12211;BME280;6168;42.658;23.298;2022-07-29T05:22:11;64211.38;;;-139.92;100.00
12211;BME280;6168;42.658;23.298;2022-07-29T05:24:38;64234.28;;;-139.92;100.00
12211;BME280;6168;42.658;23.298;2022-07-29T05:27:07;64219.72;;;-139.92;100.00
12211;BME280;6168;42.658;23.298;2022-07-29T05:29:34;64211.38;;;-139.92;100.00
12211;BME280;6168;42.658;23.298;2022-07-29T05:32:02;64248.88;;;-139.92;100.00
12211;BME280;6168;42.658;23.298;2022-07-29T05:34:29;64223.88;;;-139.92;100.00
12211;BME280;6168;42.658;23.298;2022-07-29T05:36:56;64203.06;;;-139.92;100.00
12211;BME280;6168;42.658;23.298;2022-07-29T05:39:23;64219.72;;;-139.92;100.00
12211;BME280;6168;42.658;23.298;2022-07-29T05:41:50;64194.72;;;-139.92;100.00
12211;BME280;6168;42.658;23.298;2022-07-29T05:44:18;64225.97;;;-139.92;100.00
12211;BME280;6168;42.658;23.298;2022-07-29T05:46:45;64219.72;;;-139.92;100.00
12211;BME280;6168;42.658;23.298;2022-07-29T05:49:17;64211.38;;;-139.92;100.00
12211;BME280;6168;42.658;23.298;2022-07-29T05:51:44;64209.31;;;-139.92;100.00
12211;BME280;6168;42.658;23.298;2022-07-29T05:54:11;64219.72;;;-139.92;100.00
12211;BME280;6168;42.658;23.298;2022-07-29T05:56:38;64209.31;;;-139.92;100.00
12211;BME280;6168;42.658;23.298;2022-07-29T05:59:05;64207.22;;;-139.92;100.00
12211;BME280;6168;42.658;23.298;2022-07-29T06:01:33;64209.31;;;-139.92;100.00
12211;BME280;6168;42.658;23.298;2022-07-29T06:04:04;64215.56;;;-139.92;100.00
12211;BME280;6168;42.658;23.298;2022-07-29T06:06:31;64148.91;;;-139.92;100.00
12211;BME280;6168;42.658;23.298;2022-07-29T06:08:57;64200.97;;;-139.92;100.00
12211;BME280;6168;42.658;23.298;2022-07-29T06:11:24;64198.88;;;-139.92;100.00
12211;BME280;6168;42.658;23.298;2022-07-29T06:13:51;64209.31;;;-139.92;100.00
12211;BME280;6168;42.658;23.298;2022-07-29T06:16:18;64182.22;;;-139.92;100.00
12211;BME280;6168;42.658;23.298;2022-07-29T06:18:46;64173.91;;;-139.92;100.00
12211;BME280;6168;42.658;23.298;2022-07-29T06:21:13;64211.38;;;-139.92;100.00
12211;BME280;6168;42.658;23.298;2022-07-29T06:23:40;64182.22;;;-139.92;100.00
12211;BME280;6168;42.658;23.298;2022-07-29T06:26:07;64171.81;;;-139.92;100.00
12211;BME280;6168;42.658;23.298;2022-07-29T06:28:34;64155.16;;;-139.92;100.00
12211;BME280;6168;42.658;23.298;2022-07-29T06:31:01;64209.31;;;-139.92;100.00
12211;BME280;6168;42.658;23.298;2022-07-29T06:33:28;64173.91;;;-139.92;100.00
12211;BME280;6168;42.658;23.298;2022-07-29T06:35:56;64200.97;;;-139.92;100.00
12211;BME280;6168;42.658;23.298;2022-07-29T06:38:23;64173.91;;;-139.92;100.00
12211;BME280;6168;42.658;23.298;2022-07-29T06:40:50;64159.31;;;-139.92;100.00
12211;BME280;6168;42.658;23.298;2022-07-29T06:43:32;64151.00;;;-139.92;100.00
12211;BME280;6168;42.658;23.298;2022-07-29T06:46:02;64165.56;;;-139.92;100.00
12211;BME280;6168;42.658;23.298;2022-07-29T06:48:29;64180.16;;;-139.92;100.00
12211;BME280;6168;42.658;23.298;2022-07-29T06:50:58;64186.41;;;-139.92;100.00
12211;BME280;6168;42.658;23.298;2022-07-29T06:53:25;64167.66;;;-139.92;100.00
12211;BME280;6168;42.658;23.298;2022-07-29T06:55:52;64151.00;;;-139.92;100.00
12211;BME280;6168;42.658;23.298;2022-07-29T06:58:19;64186.41;;;-139.92;100.00
12211;BME280;6168;42.658;23.298;2022-07-29T07:00:47;64163.50;;;-139.92;100.00
12211;BME280;6168;42.658;23.298;2022-07-29T07:03:14;64136.41;;;-139.92;100.00
12211;BME280;6168;42.658;23.298;2022-07-29T07:05:41;64155.16;;;-139.92;100.00
12211;BME280;6168;42.658;23.298;2022-07-29T07:08:10;64151.00;;;-139.92;100.00
12211;BME280;6168;42.658;23.298;2022-07-29T07:10:37;64148.91;;;-139.92;100.00
12211;BME280;6168;42.658;23.298;2022-07-29T07:13:05;64119.78;;;-139.92;100.00
12211;BME280;6168;42.658;23.298;2022-07-29T07:15:32;64098.94;;;-139.92;100.00
12211;BME280;6168;42.658;23.298;2022-07-29T07:17:59;64132.25;;;-139.92;100.00
12211;BME280;6168;42.658;23.298;2022-07-29T07:20:26;64113.53;;;-139.92;100.00
12211;BME280;6168;42.658;23.298;2022-07-29T07:22:53;64105.19;;;-139.92;100.00
12211;BME280;6168;42.658;23.298;2022-07-29T07:25:21;64140.59;;;-139.92;100.00
12211;BME280;6168;42.658;23.298;2022-07-29T07:27:48;64078.13;;;-139.92;100.00
12211;BME280;6168;42.658;23.298;2022-07-29T07:30:15;64126.00;;;-139.92;100.00
12211;BME280;6168;42.658;23.298;2022-07-29T07:32:42;64121.84;;;-139.92;100.00
12211;BME280;6168;42.658;23.298;2022-07-29T07:35:09;64113.53;;;-139.92;100.00
12211;BME280;6168;42.658;23.298;2022-07-29T07:37:37;64140.59;;;-139.92;100.00
12211;BME280;6168;42.658;23.298;2022-07-29T07:40:07;64107.28;;;-139.92;100.00
12211;BME280;6168;42.658;23.298;2022-07-29T07:42:36;64121.84;;;-139.92;100.00
12211;BME280;6168;42.658;23.298;2022-07-29T07:45:04;64101.03;;;-139.92;100.00
12211;BME280;6168;42.658;23.298;2022-07-29T07:47:31;64115.59;;;-139.92;100.00
12211;BME280;6168;42.658;23.298;2022-07-29T07:49:58;64146.84;;;-139.92;85.87
12211;BME280;6168;42.658;23.298;2022-07-29T07:52:25;64113.53;;;-139.92;82.37
12211;BME280;6168;42.658;23.298;2022-07-29T07:54:52;64086.44;;;-139.92;78.79
12211;BME280;6168;42.658;23.298;2022-07-29T07:57:19;64111.44;;;-139.92;76.77
12211;BME280;6168;42.658;23.298;2022-07-29T07:59:47;64103.09;;;-139.92;76.20
12211;BME280;6168;42.658;23.298;2022-07-29T08:02:14;64086.44;;;-139.92;78.91
12211;BME280;6168;42.658;23.298;2022-07-29T08:04:41;64057.31;;;-139.92;77.65
12211;BME280;6168;42.658;23.298;2022-07-29T08:07:08;64121.84;;;-139.92;70.86
12211;BME280;6168;42.658;23.298;2022-07-29T08:09:35;64094.78;;;-139.92;71.79
12211;BME280;6168;42.658;23.298;2022-07-29T08:12:02;64084.38;;;-139.92;70.61
12211;BME280;6168;42.658;23.298;2022-07-29T08:14:31;64088.53;;;-139.92;69.15
12211;BME280;6168;42.658;23.298;2022-07-29T08:17:00;64088.53;;;-139.92;70.05
12211;BME280;6168;42.658;23.298;2022-07-29T08:19:26;64076.03;;;-139.92;68.38
12211;BME280;6168;42.658;23.298;2022-07-29T08:21:53;64023.97;;;-139.92;68.22
12211;BME280;6168;42.658;23.298;2022-07-29T08:24:20;64067.72;;;-139.92;66.20
12211;BME280;6168;42.658;23.298;2022-07-29T08:27:05;64103.09;;;-139.92;66.65
12211;BME280;6168;42.658;23.298;2022-07-29T08:29:32;64057.31;;;-139.92;66.26
12211;BME280;6168;42.658;23.298;2022-07-29T08:32:00;64055.22;;;-139.92;66.10
12211;BME280;6168;42.658;23.298;2022-07-29T08:34:27;64032.31;;;-139.92;61.80
12211;BME280;6168;42.658;23.298;2022-07-29T08:36:54;64057.31;;;-139.92;64.40
12211;BME280;6168;42.658;23.298;2022-07-29T08:39:22;64069.78;;;-139.92;69.07
12211;BME280;6168;42.658;23.298;2022-07-29T08:41:50;64078.13;;;-139.92;63.95
12211;BME280;6168;42.658;23.298;2022-07-29T08:44:17;64098.94;;;-139.92;62.29
12211;BME280;6168;42.658;23.298;2022-07-29T08:46:44;64053.13;;;-139.92;58.43
12211;BME280;6168;42.658;23.298;2022-07-29T08:49:13;64053.13;;;-139.92;57.56
12211;BME280;6168;42.658;23.298;2022-07-29T08:51:40;64061.47;;;-139.92;58.23
12211;BME280;6168;42.658;23.298;2022-07-29T08:54:08;64040.66;;;-139.92;57.24
12211;BME280;6168;42.658;23.298;2022-07-29T08:56:37;64038.56;;;-139.92;58.46
12211;BME280;6168;42.658;23.298;2022-07-29T08:59:05;64017.75;;;-139.92;53.22
12211;BME280;6168;42.658;23.298;2022-07-29T09:01:33;64057.31;;;-139.92;55.59
12211;BME280;6168;42.658;23.298;2022-07-29T09:04:01;64057.31;;;-139.92;58.51
12211;BME280;6168;42.658;23.298;2022-07-29T09:06:32;64078.13;;;-139.92;58.50
12211;BME280;6168;42.658;23.298;2022-07-29T09:09:01;64094.78;;;-139.92;59.61
12211;BME280;6168;42.658;23.298;2022-07-29T09:11:27;64071.88;;;-139.92;59.56
12211;BME280;6168;42.658;23.298;2022-07-29T09:13:54;64055.22;;;-139.92;59.95
12211;BME280;6168;42.658;23.298;2022-07-29T09:16:21;64061.47;;;-139.92;60.21
12211;BME280;6168;42.658;23.298;2022-07-29T09:18:48;64044.81;;;-139.92;64.18
12211;BME280;6168;42.658;23.298;2022-07-29T09:21:16;64048.97;;;-139.92;60.25
12211;BME280;6168;42.658;23.298;2022-07-29T09:24:08;64059.38;;;-139.92;56.01
12211;BME280;6168;42.658;23.298;2022-07-29T09:26:36;64051.06;;;-139.92;54.64
12211;BME280;6168;42.658;23.298;2022-07-29T09:29:11;64021.91;;;-139.92;55.49
12211;BME280;6168;42.658;23.298;2022-07-29T09:31:40;64042.72;;;-139.92;52.79
12211;BME280;6168;42.658;23.298;2022-07-29T09:34:08;64015.66;;;-139.92;55.20
12211;BME280;6168;42.658;23.298;2022-07-29T09:36:39;64015.66;;;-139.92;55.91
12211;BME280;6168;42.658;23.298;2022-07-29T09:39:10;63999.00;;;-139.92;52.21
12211;BME280;6168;42.658;23.298;2022-07-29T09:41:48;63982.34;;;-139.92;56.83
12211;BME280;6168;42.658;23.298;2022-07-29T09:44:16;64005.25;;;-139.92;52.12
12211;BME280;6168;42.658;23.298;2022-07-29T09:46:57;63996.91;;;-139.92;51.88
12211;BME280;6168;42.658;23.298;2022-07-29T09:49:25;63999.00;;;-139.92;51.38
12211;BME280;6168;42.658;23.298;2022-07-29T09:52:05;63986.50;;;-139.92;48.89
12211;BME280;6168;42.658;23.298;2022-07-29T09:54:35;64011.50;;;-139.92;49.66
12211;BME280;6168;42.658;23.298;2022-07-29T09:57:06;64036.47;;;-139.92;49.79
12211;BME280;6168;42.658;23.298;2022-07-29T09:59:35;64019.81;;;-139.92;51.36
12211;BME280;6168;42.658;23.298;2022-07-29T10:02:11;64007.31;;;-139.92;51.97
12211;BME280;6168;42.658;23.298;2022-07-29T10:04:39;64017.75;;;-139.92;53.99
12211;BME280;6168;42.658;23.298;2022-07-29T10:07:06;63969.84;;;-139.92;55.79
12211;BME280;6168;42.658;23.298;2022-07-29T10:09:35;64005.25;;;-139.92;53.02
12211;BME280;6168;42.658;23.298;2022-07-29T10:12:09;64021.91;;;-139.92;51.36
12211;BME280;6168;42.658;23.298;2022-07-29T10:14:36;63974.00;;;-139.92;50.67
12211;BME280;6168;42.658;23.298;2022-07-29T10:17:05;64009.41;;;-139.92;51.19
12211;BME280;6168;42.658;23.298;2022-07-29T10:19:33;63963.59;;;-139.92;48.94
12211;BME280;6168;42.658;23.298;2022-07-29T10:22:03;63965.69;;;-139.92;47.49
12211;BME280;6168;42.658;23.298;2022-07-29T10:24:31;63911.56;;;-139.92;48.53
12211;BME280;6168;42.658;23.298;2022-07-29T10:27:00;63944.88;;;-139.92;48.16
12211;BME280;6168;42.658;23.298;2022-07-29T10:29:28;63955.28;;;-139.92;49.67
12211;BME280;6168;42.658;23.298;2022-07-29T10:32:10;63957.34;;;-139.92;44.62
12211;BME280;6168;42.658;23.298;2022-07-29T10:34:53;63936.53;;;-139.92;48.71
12211;BME280;6168;42.658;23.298;2022-07-29T10:37:29;63894.91;;;-139.92;46.19
12211;BME280;6168;42.658;23.298;2022-07-29T10:40:05;63957.34;;;-139.92;47.33
12211;BME280;6168;42.658;23.298;2022-07-29T10:42:52;63919.88;;;-139.92;48.42
12211;BME280;6168;42.658;23.298;2022-07-29T10:45:20;63936.53;;;-139.92;46.45
12211;BME280;6168;42.658;23.298;2022-07-29T10:47:47;63919.88;;;-139.92;48.63
12211;BME280;6168;42.658;23.298;2022-07-29T10:50:14;63932.38;;;-139.92;48.68
12211;BME280;6168;42.658;23.298;2022-07-29T10:52:54;63924.03;;;-139.92;48.89
12211;BME280;6168;42.658;23.298;2022-07-29T10:55:36;63913.63;;;-139.92;48.24
12211;BME280;6168;42.658;23.298;2022-07-29T10:58:16;63924.03;;;-139.92;46.95
12211;BME280;6168;42.658;23.298;2022-07-29T11:00:44;63928.22;;;-139.92;49.38
12211;BME280;6168;42.658;23.298;2022-07-29T11:03:45;63903.22;;;-139.92;46.02
12211;BME280;6168;42.658;23.298;2022-07-29T11:06:13;63884.47;;;-139.92;46.36
12211;BME280;6168;42.658;23.298;2022-07-29T11:08:41;63924.03;;;-139.92;45.80
12211;BME280;6168;42.658;23.298;2022-07-29T11:11:34;63890.72;;;-139.92;45.29
12211;BME280;6168;42.658;23.298;2022-07-29T11:14:03;63890.72;;;-139.92;44.58
12211;BME280;6168;42.658;23.298;2022-07-29T11:17:03;63901.13;;;-139.92;44.12
12211;BME280;6168;42.658;23.298;2022-07-29T11:19:31;63907.38;;;-139.92;46.19
12211;BME280;6168;42.658;23.298;2022-07-29T11:21:58;63894.91;;;-139.92;45.00
12211;BME280;6168;42.658;23.298;2022-07-29T11:24:26;63917.78;;;-139.92;44.96
12211;BME280;6168;42.658;23.298;2022-07-29T11:27:14;63903.22;;;-139.92;44.08
12211;BME280;6168;42.658;23.298;2022-07-29T11:29:54;63907.38;;;-139.92;42.03
12211;BME280;6168;42.658;23.298;2022-07-29T11:32:22;63876.16;;;-139.92;44.20
12211;BME280;6168;42.658;23.298;2022-07-29T11:35:15;63884.47;;;-139.92;42.73
12211;BME280;6168;42.658;23.298;2022-07-29T11:37:44;63888.66;;;-139.92;42.85
12211;BME280;6168;42.658;23.298;2022-07-29T11:40:15;63861.59;;;-139.92;42.04
12211;BME280;6168;42.658;23.298;2022-07-29T11:42:50;63855.34;;;-139.92;42.33
12211;BME280;6168;42.658;23.298;2022-07-29T11:45:24;63874.06;;;-139.92;42.74
12211;BME280;6168;42.658;23.298;2022-07-29T11:47:56;63880.31;;;-139.92;41.34
12211;BME280;6168;42.658;23.298;2022-07-29T11:50:32;63924.03;;;-139.92;41.29
12211;BME280;6168;42.658;23.298;2022-07-29T11:53:00;63928.22;;;-139.92;42.13
12211;BME280;6168;42.658;23.298;2022-07-29T11:55:27;63903.22;;;-139.92;42.44
12211;BME280;6168;42.658;23.298;2022-07-29T11:57:55;63913.63;;;-139.92;41.67
12211;BME280;6168;42.658;23.298;2022-07-29T12:00:28;63894.91;;;-139.92;42.02
12211;BME280;6168;42.658;23.298;2022-07-29T12:02:56;63926.13;;;-139.92;40.61
12211;BME280;6168;42.658;23.298;2022-07-29T12:05:31;63888.66;;;-139.92;41.90
12211;BME280;6168;42.658;23.298;2022-07-29T12:08:05;63874.06;;;-139.92;40.82
12211;BME280;6168;42.658;23.298;2022-07-29T12:10:32;63911.56;;;-139.92;39.49
12211;BME280;6168;42.658;23.298;2022-07-29T12:12:59;63863.66;;;-139.92;40.88
12211;BME280;6168;42.658;23.298;2022-07-29T12:15:27;63888.66;;;-139.92;40.59
12211;BME280;6168;42.658;23.298;2022-07-29T12:17:54;63878.25;;;-139.92;41.01
12211;BME280;6168;42.658;23.298;2022-07-29T12:20:26;63874.06;;;-139.92;41.14
12211;BME280;6168;42.658;23.298;2022-07-29T12:22:53;63872.00;;;-139.92;39.60
12211;BME280;6168;42.658;23.298;2022-07-29T12:25:22;63855.34;;;-139.92;41.22
12211;BME280;6168;42.658;23.298;2022-07-29T12:27:57;63874.06;;;-139.92;40.35
12211;BME280;6168;42.658;23.298;2022-07-29T12:30:35;63851.16;;;-139.92;39.15
12211;BME280;6168;42.658;23.298;2022-07-29T12:33:13;63844.94;;;-139.92;40.89
12211;BME280;6168;42.658;23.298;2022-07-29T12:35:42;63857.41;;;-139.92;39.39
12211;BME280;6168;42.658;23.298;2022-07-29T12:38:10;63872.00;;;-139.92;39.94
12211;BME280;6168;42.658;23.298;2022-07-29T12:40:38;63861.59;;;-139.92;38.51
12211;BME280;6168;42.658;23.298;2022-07-29T12:43:05;63863.66;;;-139.92;38.01
12211;BME280;6168;42.658;23.298;2022-07-29T12:45:33;63857.41;;;-139.92;38.82
12211;BME280;6168;42.658;23.298;2022-07-29T12:48:01;63815.78;;;-139.92;39.70
12211;BME280;6168;42.658;23.298;2022-07-29T12:50:28;63849.09;;;-139.92;38.79
12211;BME280;6168;42.658;23.298;2022-07-29T12:53:08;63813.69;;;-139.92;38.47
12211;BME280;6168;42.658;23.298;2022-07-29T12:55:39;63815.78;;;-139.92;37.11
12211;BME280;6168;42.658;23.298;2022-07-29T12:58:06;63840.75;;;-139.92;38.73
12211;BME280;6168;42.658;23.298;2022-07-29T13:00:33;63855.34;;;-139.92;36.64
12211;BME280;6168;42.658;23.298;2022-07-29T13:03:01;63842.84;;;-139.92;36.68
12211;BME280;6168;42.658;23.298;2022-07-29T13:05:42;63824.09;;;-139.92;37.70
12211;BME280;6168;42.658;23.298;2022-07-29T13:08:13;63813.69;;;-139.92;39.53
12211;BME280;6168;42.658;23.298;2022-07-29T13:10:41;63819.94;;;-139.92;39.17
12211;BME280;6168;42.658;23.298;2022-07-29T13:13:09;63826.19;;;-139.92;38.38
12211;BME280;6168;42.658;23.298;2022-07-29T13:15:37;63874.06;;;-139.92;38.28
12211;BME280;6168;42.658;23.298;2022-07-29T13:18:26;63849.09;;;-139.92;37.53
12211;BME280;6168;42.658;23.298;2022-07-29T13:20:53;63842.84;;;-139.92;36.86
12211;BME280;6168;42.658;23.298;2022-07-29T13:23:20;63828.28;;;-139.92;36.89
12211;BME280;6168;42.658;23.298;2022-07-29T13:25:47;63859.50;;;-139.92;39.65
12211;BME280;6168;42.658;23.298;2022-07-29T13:28:14;63830.34;;;-139.92;36.41
12211;BME280;6168;42.658;23.298;2022-07-29T13:30:41;63859.50;;;-139.92;37.51
12211;BME280;6168;42.658;23.298;2022-07-29T13:33:10;63851.16;;;-139.92;36.94
12211;BME280;6168;42.658;23.298;2022-07-29T13:35:37;63842.84;;;-139.92;36.86
12211;BME280;6168;42.658;23.298;2022-07-29T13:38:04;63844.94;;;-139.92;37.12
12211;BME280;6168;42.658;23.298;2022-07-29T13:40:31;63874.06;;;-139.92;37.32
12211;BME280;6168;42.658;23.298;2022-07-29T13:43:00;63867.81;;;-139.92;39.21
12211;BME280;6168;42.658;23.298;2022-07-29T13:45:27;63878.25;;;-139.92;36.99
12211;BME280;6168;42.658;23.298;2022-07-29T13:47:54;63817.84;;;-139.92;37.93
12211;BME280;6168;42.658;23.298;2022-07-29T13:50:22;63861.59;;;-139.92;38.87
12211;BME280;6168;42.658;23.298;2022-07-29T13:52:49;63826.19;;;-139.92;37.09
12211;BME280;6168;42.658;23.298;2022-07-29T13:55:16;63826.19;;;-139.92;37.81
12211;BME280;6168;42.658;23.298;2022-07-29T13:57:43;63838.69;;;-139.92;38.53
12211;BME280;6168;42.658;23.298;2022-07-29T14:00:11;63876.16;;;-139.92;35.81
12211;BME280;6168;42.658;23.298;2022-07-29T14:02:38;63828.28;;;-139.92;36.70
12211;BME280;6168;42.658;23.298;2022-07-29T14:05:06;63880.31;;;-139.92;36.29
12211;BME280;6168;42.658;23.298;2022-07-29T14:07:34;63863.66;;;-139.92;36.44
12211;BME280;6168;42.658;23.298;2022-07-29T14:10:01;63855.34;;;-139.92;38.41
12211;BME280;6168;42.658;23.298;2022-07-29T14:12:28;63838.69;;;-139.92;36.32
12211;BME280;6168;42.658;23.298;2022-07-29T14:14:55;63886.56;;;-139.92;36.64
12211;BME280;6168;42.658;23.298;2022-07-29T14:17:22;63855.34;;;-139.92;36.20
12211;BME280;6168;42.658;23.298;2022-07-29T14:19:49;63876.16;;;-139.92;37.15
12211;BME280;6168;42.658;23.298;2022-07-29T14:22:16;63844.94;;;-139.92;36.38
12211;BME280;6168;42.658;23.298;2022-07-29T14:24:45;63819.94;;;-139.92;36.75
12211;BME280;6168;42.658;23.298;2022-07-29T14:27:12;63847.00;;;-139.92;36.96
12211;BME280;6168;42.658;23.298;2022-07-29T14:29:39;63840.75;;;-139.92;37.42
12211;BME280;6168;42.658;23.298;2022-07-29T14:32:06;63824.09;;;-139.92;35.78
12211;BME280;6168;42.658;23.298;2022-07-29T14:34:33;63815.78;;;-139.92;38.11
12211;BME280;6168;42.658;23.298;2022-07-29T14:37:00;63857.41;;;-139.92;36.24
12211;BME280;6168;42.658;23.298;2022-07-29T14:39:28;63847.00;;;-139.92;38.14
12211;BME280;6168;42.658;23.298;2022-07-29T14:41:57;63822.03;;;-139.92;35.82
12211;BME280;6168;42.658;23.298;2022-07-29T14:44:24;63826.19;;;-139.92;36.59
12211;BME280;6168;42.658;23.298;2022-07-29T14:46:56;63830.34;;;-139.92;36.28
12211;BME280;6168;42.658;23.298;2022-07-29T14:49:23;63822.03;;;-139.92;37.88
12211;BME280;6168;42.658;23.298;2022-07-29T14:51:50;63849.09;;;-139.92;35.11
12211;BME280;6168;42.658;23.298;2022-07-29T14:54:16;63842.84;;;-139.92;35.42
12211;BME280;6168;42.658;23.298;2022-07-29T14:56:43;63832.44;;;-139.92;35.69
12211;BME280;6168;42.658;23.298;2022-07-29T14:59:11;63819.94;;;-139.92;34.95
12211;BME280;6168;42.658;23.298;2022-07-29T15:01:38;63826.19;;;-139.92;37.03
12211;BME280;6168;42.658;23.298;2022-07-29T15:04:05;63815.78;;;-139.92;36.72
12211;BME280;6168;42.658;23.298;2022-07-29T15:06:32;63847.00;;;-139.92;35.64
12211;BME280;6168;42.658;23.298;2022-07-29T15:08:59;63851.16;;;-139.92;36.32
12211;BME280;6168;42.658;23.298;2022-07-29T15:11:26;63861.59;;;-139.92;35.87
12211;BME280;6168;42.658;23.298;2022-07-29T15:13:53;63857.41;;;-139.92;35.95
12211;BME280;6168;42.658;23.298;2022-07-29T15:16:21;63859.50;;;-139.92;36.70
12211;BME280;6168;42.658;23.298;2022-07-29T15:18:48;63849.09;;;-139.92;37.51
12211;BME280;6168;42.658;23.298;2022-07-29T15:21:15;63844.94;;;-139.92;37.60
12211;BME280;6168;42.658;23.298;2022-07-29T15:23:41;63844.94;;;-139.92;37.68
12211;BME280;6168;42.658;23.298;2022-07-29T15:26:09;63880.31;;;-139.92;36.83
12211;BME280;6168;42.658;23.298;2022-07-29T15:28:36;63840.75;;;-139.92;36.58
12211;BME280;6168;42.658;23.298;2022-07-29T15:31:03;63865.75;;;-139.92;37.16
12211;BME280;6168;42.658;23.298;2022-07-29T15:33:32;63899.06;;;-139.92;38.24
12211;BME280;6168;42.658;23.298;2022-07-29T15:35:59;63888.66;;;-139.92;37.46
12211;BME280;6168;42.658;23.298;2022-07-29T15:38:25;63884.47;;;-139.92;38.27
12211;BME280;6168;42.658;23.298;2022-07-29T15:40:52;63874.06;;;-139.92;38.35
12211;BME280;6168;42.658;23.298;2022-07-29T15:43:19;63882.41;;;-139.92;38.20
12211;BME280;6168;42.658;23.298;2022-07-29T15:45:46;63874.06;;;-139.92;36.91
12211;BME280;6168;42.658;23.298;2022-07-29T15:48:26;63928.22;;;-139.92;38.23
12211;BME280;6168;42.658;23.298;2022-07-29T15:50:55;63905.31;;;-139.92;39.72
12211;BME280;6168;42.658;23.298;2022-07-29T15:53:21;63940.69;;;-139.92;40.03
12211;BME280;6168;42.658;23.298;2022-07-29T15:55:48;63919.88;;;-139.92;40.24
12211;BME280;6168;42.658;23.298;2022-07-29T15:58:15;63888.66;;;-139.92;40.79
12211;BME280;6168;42.658;23.298;2022-07-29T16:00:42;63938.63;;;-139.92;42.26
12211;BME280;6168;42.658;23.298;2022-07-29T16:03:09;63946.94;;;-139.92;42.49
12211;BME280;6168;42.658;23.298;2022-07-29T16:05:36;63909.47;;;-139.92;43.26
12211;BME280;6168;42.658;23.298;2022-07-29T16:08:05;63938.63;;;-139.92;42.43
12211;BME280;6168;42.658;23.298;2022-07-29T16:10:32;63930.28;;;-139.92;42.20
12211;BME280;6168;42.658;23.298;2022-07-29T16:12:59;63932.38;;;-139.92;42.75
12211;BME280;6168;42.658;23.298;2022-07-29T16:15:26;63934.47;;;-139.92;42.49
12211;BME280;6168;42.658;23.298;2022-07-29T16:17:53;63959.44;;;-139.92;42.39
12211;BME280;6168;42.658;23.298;2022-07-29T16:20:19;63953.19;;;-139.92;42.67
12211;BME280;6168;42.658;23.298;2022-07-29T16:22:46;64001.09;;;-139.92;43.51
12211;BME280;6168;42.658;23.298;2022-07-29T16:25:15;63974.00;;;-139.92;43.24
12211;BME280;6168;42.658;23.298;2022-07-29T16:27:42;64011.50;;;-139.92;44.39
12211;BME280;6168;42.658;23.298;2022-07-29T16:30:09;63961.53;;;-139.92;44.12
12211;BME280;6168;42.658;23.298;2022-07-29T16:32:36;63969.84;;;-139.92;44.31
12211;BME280;6168;42.658;23.298;2022-07-29T16:35:04;64009.41;;;-139.92;45.05
12211;BME280;6168;42.658;23.298;2022-07-29T16:37:31;63992.75;;;-139.92;43.57
12211;BME280;6168;42.658;23.298;2022-07-29T16:40:01;63986.50;;;-139.92;43.88
12211;BME280;6168;42.658;23.298;2022-07-29T16:42:29;63999.00;;;-139.92;44.39
12211;BME280;6168;42.658;23.298;2022-07-29T16:44:56;63999.00;;;-139.92;43.47
12211;BME280;6168;42.658;23.298;2022-07-29T16:47:23;63982.34;;;-139.92;43.64